Time;durP1;ratioP1;P1;durP2;ratioP2;P2;SDS_P1;SDS_P2;PMS_P1;PMS_P2;Temp;Humidity;BMP_temperature;BMP_pressure;BME280_temperature;BME280_humidity;BME280_pressure;Samples;Min_cycle;Max_cycle;Signal;HPM_P1;HPM_P2
2021/11/13 00:02:22;;;;;;;28.60;18.43;;;;;;;4.07;85.04;100493.97;5032297;28;20418;-79
2021/11/13 00:04:47;;;;;;;33.60;19.07;;;;;;;4.10;84.81;100496.25;5026901;28;20955;-79
2021/11/13 00:07:13;;;;;;;30.60;18.73;;;;;;;4.06;84.51;100495.00;5031561;28;20413;-78
2021/11/13 00:09:38;;;;;;;30.92;18.75;;;;;;;4.09;84.77;100499.13;5016997;28;20505;-78
2021/11/13 00:12:05;;;;;;;29.58;19.05;;;;;;;4.05;85.28;100506.75;5031995;28;20455;-78
2021/11/13 00:14:31;;;;;;;33.37;19.03;;;;;;;4.04;85.11;100507.78;5029077;28;20414;-79
2021/11/13 00:16:56;;;;;;;35.35;18.80;;;;;;;4.05;85.29;100498.69;5031614;28;20403;-79
2021/11/13 00:19:22;;;;;;;32.75;19.20;;;;;;;4.07;85.15;100506.56;5030519;28;20910;-79
2021/11/13 00:21:47;;;;;;;32.50;19.37;;;;;;;4.09;85.32;100499.97;5028146;28;20984;-79
2021/11/13 00:24:13;;;;;;;33.40;20.17;;;;;;;4.15;85.46;100501.00;5030137;28;20418;-79
2021/11/13 00:26:39;;;;;;;36.23;19.97;;;;;;;4.17;85.40;100510.53;5031482;28;20453;-79
2021/11/13 00:29:05;;;;;;;29.10;18.90;;;;;;;4.14;85.24;100513.59;5029749;28;20475;-81
2021/11/13 00:31:31;;;;;;;33.45;19.42;;;;;;;4.17;85.22;100517.72;5029677;28;20445;-79
2021/11/13 00:33:58;;;;;;;39.33;20.67;;;;;;;4.14;85.39;100518.13;5028462;28;20414;-79
2021/11/13 00:36:23;;;;;;;43.17;20.50;;;;;;;4.12;85.22;100530.91;5029288;28;20530;-78
2021/11/13 00:38:48;;;;;;;40.93;21.30;;;;;;;4.11;85.46;100531.94;5029589;28;20497;-78
2021/11/13 00:41:14;;;;;;;45.93;21.40;;;;;;;4.09;85.62;100528.63;5028229;28;20446;-78
2021/11/13 00:43:39;;;;;;;42.27;20.93;;;;;;;4.12;85.63;100536.25;5030958;28;20419;-78
2021/11/13 00:46:05;;;;;;;35.73;20.20;;;;;;;4.14;85.47;100537.75;5030259;28;20522;-79
2021/11/13 00:48:30;;;;;;;37.22;20.35;;;;;;;4.16;85.60;100532.16;5031119;28;20473;-78
2021/11/13 00:50:56;;;;;;;45.20;21.00;;;;;;;4.17;85.42;100525.78;5030181;28;20443;-78
2021/11/13 00:53:21;;;;;;;46.87;21.00;;;;;;;4.06;85.62;100516.44;5020286;28;20884;-79
2021/11/13 00:55:47;;;;;;;49.73;21.73;;;;;;;4.05;85.37;100519.34;5025567;28;20407;-78
2021/11/13 00:58:12;;;;;;;44.87;21.73;;;;;;;4.03;85.85;100522.22;5029387;28;20616;-78
2021/11/13 01:00:38;;;;;;;48.15;22.48;;;;;;;4.02;85.91;100506.31;5027007;28;20505;-79
2021/11/13 01:03:03;;;;;;;43.60;22.45;;;;;;;3.98;85.81;100507.78;5030774;28;20460;-79
2021/11/13 01:05:29;;;;;;;51.40;22.97;;;;;;;3.94;86.45;100511.88;5029841;28;20788;-78
2021/11/13 01:07:55;;;;;;;66.18;23.85;;;;;;;3.93;86.54;100510.22;5031021;28;20909;-78
2021/11/13 01:10:21;;;;;;;61.55;22.33;;;;;;;3.93;86.62;100505.69;5029947;28;20442;-79
2021/11/13 01:12:48;;;;;;;61.10;22.97;;;;;;;4.01;86.49;100520.78;5029565;28;21015;-78
2021/11/13 01:15:17;;;;;;;49.15;24.35;;;;;;;4.07;86.62;100517.28;5031774;28;20380;-79
2021/11/13 01:17:42;;;;;;;50.42;24.20;;;;;;;4.10;86.89;100523.06;5029539;28;20417;-78
2021/11/13 01:20:11;;;;;;;48.97;21.63;;;;;;;4.05;86.61;100512.09;5028504;28;20545;-79
2021/11/13 01:22:37;;;;;;;52.97;21.83;;;;;;;3.97;86.61;100500.75;5030320;28;20501;-78
2021/11/13 01:25:03;;;;;;;48.13;22.63;;;;;;;3.97;86.63;100498.91;5029698;28;20407;-78
2021/11/13 01:27:28;;;;;;;44.67;22.25;;;;;;;3.95;86.61;100492.09;5030600;28;21011;-78
2021/11/13 01:29:54;;;;;;;52.63;22.27;;;;;;;3.98;86.73;100491.69;5026298;28;20442;-79
2021/11/13 01:32:20;;;;;;;43.93;20.57;;;;;;;4.01;86.48;100483.25;5029515;28;20403;-78
2021/11/13 01:34:45;;;;;;;69.03;22.48;;;;;;;4.00;86.52;100487.75;5029847;28;20446;-78
2021/11/13 01:37:11;;;;;;;47.75;22.08;;;;;;;4.03;86.81;100479.31;5025836;28;20413;-78
2021/11/13 01:39:37;;;;;;;41.17;21.13;;;;;;;4.09;86.60;100473.13;5026500;28;20422;-79
2021/11/13 01:42:03;;;;;;;48.42;21.08;;;;;;;4.07;86.49;100474.38;5030106;28;20478;-78
2021/11/13 01:44:29;;;;;;;53.58;22.27;;;;;;;3.95;86.68;100466.06;5027674;28;20739;-79
2021/11/13 01:46:54;;;;;;;40.28;21.10;;;;;;;3.98;86.92;100457.66;5031413;28;20410;-77
2021/11/13 01:49:20;;;;;;;53.77;22.17;;;;;;;3.97;86.68;100453.31;5027853;28;20410;-78
2021/11/13 01:51:49;;;;;;;52.00;22.17;;;;;;;4.01;86.64;100461.78;5029524;28;20395;-78
2021/11/13 01:54:14;;;;;;;53.80;22.37;;;;;;;4.00;86.38;100474.34;5028593;28;20434;-78
2021/11/13 01:56:40;;;;;;;38.20;20.87;;;;;;;4.04;86.36;100466.75;5028265;28;20916;-78
2021/11/13 01:59:07;;;;;;;44.80;22.30;;;;;;;4.10;86.64;100464.06;5027536;28;20893;-79
2021/11/13 02:01:33;;;;;;;42.38;20.85;;;;;;;4.08;86.93;100458.06;5027757;28;20761;-79
2021/11/13 02:03:59;;;;;;;33.85;20.25;;;;;;;4.11;86.78;100455.00;5030010;28;20490;-78
2021/11/13 02:06:25;;;;;;;44.05;21.52;;;;;;;4.04;86.58;100443.44;5029149;28;20498;-78
2021/11/13 02:08:51;;;;;;;35.22;20.20;;;;;;;3.98;86.68;100443.41;5028472;28;20518;-79
2021/11/13 02:11:23;;;;;;;36.87;20.23;;;;;;;3.99;86.74;100447.72;5029668;28;20442;-78
2021/11/13 02:13:50;;;;;;;41.15;20.02;;;;;;;3.93;86.74;100441.34;5028939;28;20446;-78
2021/11/13 02:16:16;;;;;;;34.70;20.27;;;;;;;3.91;86.69;100445.25;5028316;28;20746;-78
2021/11/13 02:18:44;;;;;;;31.70;19.23;;;;;;;4.00;86.73;100444.88;5018380;28;20439;-78
2021/11/13 02:21:10;;;;;;;43.07;19.50;;;;;;;4.02;86.78;100441.97;5022513;28;20446;-78
2021/11/13 02:23:36;;;;;;;33.88;18.73;;;;;;;4.01;86.87;100443.00;5028702;28;20510;-78
2021/11/13 02:26:02;;;;;;;31.83;18.85;;;;;;;3.95;86.41;100444.63;5031007;28;20395;-79
2021/11/13 02:28:28;;;;;;;30.40;18.67;;;;;;;4.00;86.18;100449.41;5028703;28;20407;-78
2021/11/13 02:30:57;;;;;;;27.23;17.90;;;;;;;4.03;86.40;100444.47;5030770;28;20499;-79
2021/11/13 02:33:23;;;;;;;26.48;16.58;;;;;;;4.06;86.21;100444.06;5032616;28;20415;-78
2021/11/13 02:35:55;;;;;;;25.50;17.07;;;;;;;4.06;86.51;100441.38;5032086;28;20403;-79
2021/11/13 02:38:29;;;;;;;25.05;16.05;;;;;;;4.01;85.72;100449.22;5033560;28;20911;-78
2021/11/13 02:40:56;;;;;;;23.15;15.73;;;;;;;3.97;85.88;100445.28;5031007;28;20418;-78
2021/11/13 02:43:24;;;;;;;21.80;15.57;;;;;;;3.97;86.35;100442.59;5034640;28;20445;-78
2021/11/13 02:45:52;;;;;;;23.05;15.52;;;;;;;4.01;85.99;100451.88;5033009;28;20705;-78
2021/11/13 02:48:18;;;;;;;22.85;15.00;;;;;;;4.03;85.61;100447.13;5031583;28;20403;-78
2021/11/13 02:50:43;;;;;;;22.27;14.38;;;;;;;4.04;85.32;100438.06;5032757;28;20475;-79
2021/11/13 02:53:24;;;;;;;21.23;13.83;;;;;;;4.07;85.28;100434.97;5030245;28;20388;-78
2021/11/13 02:55:52;;;;;;;22.33;14.00;;;;;;;4.02;84.94;100434.75;5028079;28;21009;-78
2021/11/13 02:58:20;;;;;;;23.23;14.07;;;;;;;3.93;84.57;100429.78;5033022;28;20402;-79
2021/11/13 03:00:47;;;;;;;23.73;14.60;;;;;;;3.92;84.92;100433.50;5033583;28;20418;-78
2021/11/13 03:03:17;;;;;;;21.33;14.50;;;;;;;3.96;85.41;100427.53;5034162;28;20445;-79
2021/11/13 03:05:49;;;;;;;23.58;15.27;;;;;;;4.04;85.17;100438.06;5033489;28;20430;-78
2021/11/13 03:08:26;;;;;;;20.85;15.07;;;;;;;4.07;85.45;100448.38;5034334;28;20445;-79
2021/11/13 03:10:54;;;;;;;20.83;14.20;;;;;;;4.08;85.43;100433.13;5034048;28;20499;-79
2021/11/13 03:13:20;;;;;;;21.83;14.43;;;;;;;4.12;84.85;100431.66;5013047;28;20416;-79
2021/11/13 03:15:45;;;;;;;23.85;15.57;;;;;;;4.12;85.37;100429.00;5029684;28;20391;-78
2021/11/13 03:18:10;;;;;;;28.52;16.05;;;;;;;4.12;84.70;100423.63;5034008;28;20746;-78
2021/11/13 03:20:36;;;;;;;29.03;16.83;;;;;;;4.10;85.21;100420.34;5033675;28;20485;-78
2021/11/13 03:23:02;;;;;;;26.07;17.20;;;;;;;4.11;85.51;100419.31;5032896;28;20746;-78
2021/11/13 03:25:37;;;;;;;29.23;17.50;;;;;;;4.12;85.00;100416.41;5032423;28;20409;-78
2021/11/13 03:28:05;;;;;;;26.15;17.05;;;;;;;4.12;85.05;100410.22;5018002;28;20425;-78
2021/11/13 03:30:31;;;;;;;28.25;18.23;;;;;;;4.08;85.72;100417.03;5033599;28;20387;-78
2021/11/13 03:32:57;;;;;;;32.53;20.00;;;;;;;4.11;85.67;100427.34;5032600;28;20399;-79
2021/11/13 03:35:29;;;;;;;34.92;20.70;;;;;;;4.09;85.85;100429.41;5033412;28;20407;-79
2021/11/13 03:37:57;;;;;;;49.25;25.17;;;;;;;4.11;86.25;100425.50;5025606;28;20407;-78
2021/11/13 03:40:23;;;;;;;43.97;23.48;;;;;;;4.15;85.92;100421.38;5028323;28;20414;-78
2021/11/13 03:42:48;;;;;;;62.07;25.73;;;;;;;4.14;85.95;100416.22;5032127;28;20388;-78
2021/11/13 03:45:13;;;;;;;33.33;19.20;;;;;;;4.14;85.67;100405.50;5028346;28;20492;-78
2021/11/13 03:47:39;;;;;;;31.77;20.05;;;;;;;4.16;85.49;100393.53;5021326;28;20537;-78
2021/11/13 03:50:05;;;;;;;33.10;19.20;;;;;;;4.18;85.95;100396.81;5020092;28;20411;-78
2021/11/13 03:52:30;;;;;;;36.78;20.27;;;;;;;4.17;85.57;100387.13;5019563;28;20442;-78
2021/11/13 03:54:56;;;;;;;42.40;20.70;;;;;;;4.07;85.34;100383.19;5020789;28;21016;-78
2021/11/13 03:57:21;;;;;;;39.63;21.83;;;;;;;4.14;85.46;100384.03;5018482;28;20408;-78
2021/11/13 03:59:47;;;;;;;40.63;21.30;;;;;;;4.10;85.82;100382.78;5021702;28;20542;-78
2021/11/13 04:02:12;;;;;;;45.13;21.87;;;;;;;4.08;86.24;100391.03;5020580;28;20800;-78
2021/11/13 04:04:39;;;;;;;42.37;21.57;;;;;;;4.09;86.03;100384.63;5019641;28;20860;-78
2021/11/13 04:07:04;;;;;;;56.97;22.70;;;;;;;4.11;86.03;100384.44;5028691;28;20425;-79
2021/11/13 04:09:29;;;;;;;48.88;23.48;;;;;;;4.12;86.14;100388.75;5021041;28;20407;-79
2021/11/13 04:11:55;;;;;;;47.72;21.58;;;;;;;4.11;86.55;100384.44;5018976;28;20415;-78
2021/11/13 04:14:20;;;;;;;45.03;23.40;;;;;;;4.10;86.40;100378.25;5031343;28;20391;-78
2021/11/13 04:16:46;;;;;;;52.30;23.97;;;;;;;4.09;86.66;100381.13;5031745;28;20759;-78
2021/11/13 04:19:12;;;;;;;57.60;23.50;;;;;;;4.08;86.95;100380.31;5031230;28;20439;-78
2021/11/13 04:21:37;;;;;;;49.92;22.95;;;;;;;4.07;86.73;100380.53;5011365;28;20429;-78
2021/11/13 04:24:04;;;;;;;53.20;24.53;;;;;;;4.11;86.80;100379.91;5024113;28;20407;-78
2021/11/13 04:26:29;;;;;;;50.40;25.20;;;;;;;4.07;86.81;100378.66;5032214;28;20457;-78
2021/11/13 04:28:55;;;;;;;51.33;24.83;;;;;;;4.05;86.98;100383.38;5031690;28;20482;-78
2021/11/13 04:31:20;;;;;;;46.47;24.47;;;;;;;4.09;86.85;100378.44;5030400;28;20415;-78
2021/11/13 04:33:45;;;;;;;44.92;24.15;;;;;;;4.13;86.97;100374.34;5032709;28;20399;-78
2021/11/13 04:36:29;;;;;;;46.70;24.13;;;;;;;4.06;87.02;100386.91;5032374;28;20394;-78
2021/11/13 04:38:54;;;;;;;40.70;23.25;;;;;;;4.10;86.83;100386.31;5023626;28;20395;-78
2021/11/13 04:41:19;;;;;;;37.43;22.53;;;;;;;4.16;86.70;100380.13;5032203;28;20411;-78
2021/11/13 04:43:45;;;;;;;39.43;22.37;;;;;;;4.23;86.97;100384.66;5032321;28;20401;-79
2021/11/13 04:46:10;;;;;;;35.73;21.30;;;;;;;4.24;86.87;100381.78;5030337;28;20878;-78
2021/11/13 04:48:35;;;;;;;36.20;21.07;;;;;;;4.24;86.60;100384.47;5031312;28;20435;-78
2021/11/13 04:51:01;;;;;;;35.20;20.73;;;;;;;4.27;86.61;100384.03;5032007;28;20395;-78
2021/11/13 04:53:27;;;;;;;38.13;21.10;;;;;;;4.30;86.46;100386.31;5024828;28;20428;-78
2021/11/13 04:55:53;;;;;;;41.05;23.70;;;;;;;4.25;86.35;100379.94;5024890;28;20408;-78
2021/11/13 04:58:18;;;;;;;38.35;21.98;;;;;;;4.23;86.47;100385.47;5030545;28;20488;-79
2021/11/13 05:00:43;;;;;;;43.22;23.70;;;;;;;4.17;86.40;100378.25;5032073;28;20950;-78
2021/11/13 05:03:09;;;;;;;37.63;22.23;;;;;;;4.18;86.48;100383.41;5031391;28;20402;-78
2021/11/13 05:05:35;;;;;;;34.30;21.20;;;;;;;4.21;86.72;100392.91;5031712;28;20399;-78
2021/11/13 05:08:01;;;;;;;36.55;22.27;;;;;;;4.22;86.53;100397.22;5030916;28;20749;-78
2021/11/13 05:10:26;;;;;;;33.08;20.90;;;;;;;4.24;86.32;100397.88;5030477;28;20503;-78
2021/11/13 05:12:51;;;;;;;35.10;21.17;;;;;;;4.24;86.39;100389.00;5031579;28;20486;-79
2021/11/13 05:15:17;;;;;;;38.03;21.20;;;;;;;4.22;86.32;100377.63;5031963;28;20429;-78
2021/11/13 05:17:43;;;;;;;35.30;20.80;;;;;;;4.17;86.37;100373.72;5028916;28;20486;-78
2021/11/13 05:20:11;;;;;;;35.70;22.13;;;;;;;4.19;86.17;100374.34;5026079;28;20927;-78
2021/11/13 05:22:38;;;;;;;35.13;20.83;;;;;;;4.19;86.59;100370.81;5010865;28;20961;-78
2021/11/13 05:25:06;;;;;;;35.50;21.63;;;;;;;4.20;86.20;100367.13;5023753;28;20795;-78
2021/11/13 05:27:32;;;;;;;36.65;21.50;;;;;;;4.26;86.08;100378.88;5031550;28;20391;-78
2021/11/13 05:29:57;;;;;;;35.20;22.57;;;;;;;4.31;86.02;100368.38;5028710;28;20411;-78
2021/11/13 05:32:23;;;;;;;38.47;22.50;;;;;;;4.27;85.89;100364.44;5030601;28;20403;-78
2021/11/13 05:34:48;;;;;;;35.33;21.23;;;;;;;4.29;86.26;100370.41;5031540;28;20519;-78
2021/11/13 05:37:14;;;;;;;30.38;20.30;;;;;;;4.23;86.20;100349.78;5031533;28;20401;-78
2021/11/13 05:39:39;;;;;;;31.13;20.70;;;;;;;4.27;85.92;100354.53;5029605;28;20425;-78
2021/11/13 05:42:05;;;;;;;32.50;20.47;;;;;;;4.28;86.06;100352.69;5031138;28;20499;-78
2021/11/13 05:44:31;;;;;;;29.35;19.20;;;;;;;4.26;85.69;100352.06;5031439;28;20398;-78
2021/11/13 05:46:56;;;;;;;32.50;19.92;;;;;;;4.24;86.08;100346.06;5031377;28;20402;-78
2021/11/13 05:49:22;;;;;;;32.38;19.55;;;;;;;4.21;85.96;100343.81;5029626;28;20446;-78
2021/11/13 05:51:49;;;;;;;34.30;22.75;;;;;;;4.24;86.07;100351.44;5029332;28;20426;-78
2021/11/13 05:54:14;;;;;;;27.80;18.98;;;;;;;4.24;86.19;100346.91;5031176;28;20445;-78
2021/11/13 05:56:40;;;;;;;27.80;18.17;;;;;;;4.23;86.36;100355.97;5031141;28;20395;-78
2021/11/13 05:59:05;;;;;;;26.80;18.83;;;;;;;4.23;86.82;100355.16;5029022;28;20446;-78
2021/11/13 06:01:31;;;;;;;28.63;19.27;;;;;;;4.26;86.46;100338.63;5031052;28;20971;-78
2021/11/13 06:03:56;;;;;;;28.80;19.93;;;;;;;4.15;86.43;100330.19;5030567;28;20418;-78
2021/11/13 06:06:21;;;;;;;28.70;19.60;;;;;;;4.15;86.16;100337.41;5034617;28;20395;-79
2021/11/13 06:08:47;;;;;;;28.00;19.23;;;;;;;4.19;86.50;100352.88;5010540;28;20574;-79
2021/11/13 06:11:12;;;;;;;29.85;19.55;;;;;;;4.26;86.47;100344.84;5033506;28;20407;-78
2021/11/13 06:13:38;;;;;;;29.17;18.97;;;;;;;4.27;86.15;100349.19;5034301;28;20421;-79
2021/11/13 06:16:03;;;;;;;29.70;19.47;;;;;;;4.29;86.28;100348.94;5035124;28;20402;-78
2021/11/13 06:18:32;;;;;;;32.53;20.33;;;;;;;4.31;86.30;100353.09;5033651;28;20495;-78
2021/11/13 06:20:59;;;;;;;29.33;19.48;;;;;;;4.32;86.22;100348.53;5033489;28;21221;-78
2021/11/13 06:23:24;;;;;;;30.43;19.30;;;;;;;4.34;85.80;100347.31;5034838;28;20403;-78
2021/11/13 06:25:49;;;;;;;27.73;19.13;;;;;;;4.37;86.06;100352.28;5034517;28;20409;-78
2021/11/13 06:28:15;;;;;;;28.17;19.37;;;;;;;4.42;86.14;100354.31;5032348;28;20412;-78
2021/11/13 06:30:40;;;;;;;31.50;18.67;;;;;;;4.41;85.98;100355.38;5033491;28;20642;-78
2021/11/13 06:33:05;;;;;;;33.60;21.30;;;;;;;4.39;85.62;100352.88;5034100;28;20402;-78
2021/11/13 06:35:31;;;;;;;32.17;19.80;;;;;;;4.40;85.69;100348.34;5034623;28;20391;-80
2021/11/13 06:37:57;;;;;;;33.30;21.30;;;;;;;4.35;85.60;100348.94;5032628;28;20399;-78
2021/11/13 06:40:22;;;;;;;35.65;21.13;;;;;;;4.33;85.87;100345.66;5034064;28;20415;-78
2021/11/13 06:42:48;;;;;;;32.30;20.52;;;;;;;4.37;85.81;100352.28;5034501;28;20478;-79
2021/11/13 06:45:13;;;;;;;31.93;21.07;;;;;;;4.38;86.06;100361.16;5029026;28;20919;-78
2021/11/13 06:47:39;;;;;;;33.13;19.98;;;;;;;4.41;85.46;100353.47;5034181;28;20545;-78
2021/11/13 06:50:07;;;;;;;36.43;21.33;;;;;;;4.40;86.01;100351.03;5027119;28;20807;-78
2021/11/13 06:52:32;;;;;;;34.38;22.08;;;;;;;4.43;85.82;100356.81;5029395;28;20403;-78
2021/11/13 06:54:58;;;;;;;32.67;20.93;;;;;;;4.46;85.77;100347.50;5034270;28;20457;-78
2021/11/13 06:57:24;;;;;;;32.13;21.07;;;;;;;4.51;85.57;100356.56;5034172;28;20449;-78
2021/11/13 06:59:49;;;;;;;34.35;21.00;;;;;;;4.54;85.81;100369.59;5030648;28;20403;-78
2021/11/13 07:02:17;;;;;;;35.57;22.50;;;;;;;4.57;85.54;100371.03;5034145;28;20457;-78
2021/11/13 07:04:43;;;;;;;33.72;21.02;;;;;;;4.59;85.76;100377.00;5032246;28;20430;-78
2021/11/13 07:07:08;;;;;;;35.20;21.73;;;;;;;4.61;85.81;100380.34;5012345;28;20480;-78
2021/11/13 07:09:34;;;;;;;30.23;19.73;;;;;;;4.66;85.35;100378.66;5030910;28;20423;-78
2021/11/13 07:11:59;;;;;;;31.10;20.23;;;;;;;4.70;85.38;100393.31;5034027;28;20501;-78
2021/11/13 07:14:25;;;;;;;36.30;22.00;;;;;;;4.74;85.36;100384.84;5033977;28;20441;-78
2021/11/13 07:16:50;;;;;;;33.28;21.73;;;;;;;4.79;85.58;100387.72;5032259;28;20401;-78
2021/11/13 07:19:15;;;;;;;34.40;23.07;;;;;;;4.82;85.06;100384.63;5026793;28;20423;-78
2021/11/13 07:21:41;;;;;;;42.00;27.90;;;;;;;4.83;85.43;100399.69;5030071;28;20423;-78
2021/11/13 07:24:10;;;;;;;44.27;26.87;;;;;;;4.84;85.47;100407.53;5022939;28;20407;-78
2021/11/13 07:26:36;;;;;;;37.00;24.40;;;;;;;4.84;85.08;100404.84;5027644;28;20423;-78
2021/11/13 07:29:07;;;;;;;36.17;22.25;;;;;;;4.87;84.86;100406.31;5028863;28;20404;-78
2021/11/13 07:31:34;;;;;;;37.42;22.73;;;;;;;4.90;85.42;100408.59;5033072;28;20411;-78
2021/11/13 07:34:02;;;;;;;37.15;22.90;;;;;;;4.94;85.04;100402.56;5033546;28;20433;-78
2021/11/13 07:36:28;;;;;;;32.78;22.23;;;;;;;4.98;85.06;100394.91;5031293;28;20406;-78
2021/11/13 07:38:53;;;;;;;36.90;22.83;;;;;;;4.99;84.87;100400.09;5026371;28;20404;-77
2021/11/13 07:41:21;;;;;;;38.73;23.70;;;;;;;5.01;85.47;100405.22;5029740;28;20407;-77
2021/11/13 07:43:47;;;;;;;39.30;23.95;;;;;;;5.05;85.73;100398.41;5032177;28;20431;-77
2021/11/13 07:46:12;;;;;;;39.80;25.70;;;;;;;5.07;85.52;100375.66;5031410;28;20457;-77
2021/11/13 07:48:38;;;;;;;35.30;22.93;;;;;;;5.11;85.65;100371.53;5027137;28;20407;-78
2021/11/13 07:51:04;;;;;;;36.97;23.30;;;;;;;5.10;85.38;100374.44;5031550;28;20399;-77
2021/11/13 07:53:29;;;;;;;38.90;24.20;;;;;;;5.09;85.69;100365.56;5033341;28;20392;-76
2021/11/13 07:55:55;;;;;;;36.53;23.33;;;;;;;5.06;85.66;100357.94;5030978;28;20581;-78
2021/11/13 07:58:20;;;;;;;41.70;23.90;;;;;;;5.08;85.74;100371.97;5031861;28;20402;-78
2021/11/13 08:00:48;;;;;;;36.50;23.33;;;;;;;5.11;85.89;100371.53;5032874;28;20423;-79
2021/11/13 08:03:14;;;;;;;34.90;21.75;;;;;;;5.16;85.65;100378.97;5032445;28;20460;-78
2021/11/13 08:05:39;;;;;;;31.75;21.70;;;;;;;5.23;85.97;100379.78;5030580;28;20411;-79
2021/11/13 08:08:06;;;;;;;30.98;21.58;;;;;;;5.29;85.88;100378.09;5027333;28;20407;-79
2021/11/13 08:10:40;;;;;;;31.37;21.60;;;;;;;5.37;85.46;100367.91;5032710;28;20518;-79
2021/11/13 08:13:06;;;;;;;34.25;21.45;;;;;;;5.48;85.16;100359.19;5031105;28;20462;-78
2021/11/13 08:15:31;;;;;;;32.38;21.75;;;;;;;5.58;84.38;100361.41;5024399;28;20917;-78
2021/11/13 08:17:57;;;;;;;32.20;21.83;;;;;;;5.61;84.50;100372.56;5031224;28;20403;-77
2021/11/13 08:20:22;;;;;;;33.70;21.93;;;;;;;5.58;84.58;100397.19;5031474;28;20505;-78
2021/11/13 08:22:48;;;;;;;31.50;21.00;;;;;;;5.58;84.87;100382.94;5031440;28;20967;-77
2021/11/13 08:25:14;;;;;;;31.42;21.50;;;;;;;5.61;84.60;100371.75;5016765;28;20428;-78
2021/11/13 08:27:40;;;;;;;35.53;23.07;;;;;;;5.61;84.47;100372.56;5020780;28;21232;-78
2021/11/13 08:30:07;;;;;;;39.78;23.88;;;;;;;5.56;84.75;100393.09;5030968;28;20473;-77
2021/11/13 08:32:34;;;;;;;30.25;23.08;;;;;;;5.58;85.50;100377.56;5029386;28;20557;-77
2021/11/13 08:34:59;;;;;;;32.38;22.05;;;;;;;5.52;85.19;100376.56;5025332;28;20946;-78
2021/11/13 08:37:25;;;;;;;38.03;23.73;;;;;;;5.52;85.44;100389.16;5030304;28;20486;-78
2021/11/13 08:39:50;;;;;;;39.08;24.50;;;;;;;5.55;85.68;100388.75;5029243;28;20413;-78
2021/11/13 08:42:15;;;;;;;34.50;23.53;;;;;;;5.60;85.74;100400.47;5030305;28;20494;-78
2021/11/13 08:44:44;;;;;;;38.33;24.23;;;;;;;5.68;86.06;100381.44;5029879;28;20399;-78
2021/11/13 08:47:11;;;;;;;36.42;25.73;;;;;;;5.77;85.49;100387.38;5024573;28;21235;-77
2021/11/13 08:49:42;;;;;;;40.85;26.85;;;;;;;5.83;85.52;100391.88;5029712;28;20861;-78
2021/11/13 08:52:10;;;;;;;39.35;25.67;;;;;;;5.84;85.36;100395.41;5027988;28;20426;-78
2021/11/13 08:54:36;;;;;;;42.60;26.95;;;;;;;5.86;86.01;100383.41;5031682;28;20716;-78
2021/11/13 08:57:02;;;;;;;43.30;26.47;;;;;;;5.96;85.07;100388.34;5024057;28;20418;-78
2021/11/13 08:59:27;;;;;;;34.75;23.05;;;;;;;6.04;85.59;100382.69;5031228;28;20441;-78
2021/11/13 09:01:53;;;;;;;35.50;22.97;;;;;;;6.12;84.96;100377.91;5027566;28;20411;-78
2021/11/13 09:04:18;;;;;;;40.47;25.27;;;;;;;6.19;84.49;100388.63;5027327;28;20387;-78
2021/11/13 09:06:44;;;;;;;38.90;24.67;;;;;;;6.24;84.37;100389.59;5029445;28;20529;-78
2021/11/13 09:09:09;;;;;;;34.95;23.58;;;;;;;6.23;83.81;100396.00;5031828;28;20444;-78
2021/11/13 09:11:37;;;;;;;35.25;23.77;;;;;;;6.35;83.88;100381.84;5027991;28;20418;-78
2021/11/13 09:14:07;;;;;;;33.20;22.33;;;;;;;6.48;83.36;100382.59;5018678;28;20504;-78
2021/11/13 09:16:33;;;;;;;32.08;22.02;;;;;;;6.63;83.43;100376.84;5024186;28;20421;-78
2021/11/13 09:18:59;;;;;;;29.55;21.10;;;;;;;6.81;82.76;100366.13;5020882;28;20422;-78
2021/11/13 09:21:37;;;;;;;29.30;20.23;;;;;;;7.00;82.46;100365.09;5015497;28;20557;-78
2021/11/13 09:24:04;;;;;;;33.23;21.77;;;;;;;7.06;82.51;100374.13;5019205;28;20398;-78
2021/11/13 09:26:30;;;;;;;32.92;22.35;;;;;;;7.18;82.00;100375.84;5026445;28;21190;-80
2021/11/13 09:28:56;;;;;;;30.23;21.00;;;;;;;7.23;82.16;100378.72;5030835;28;20391;-78
2021/11/13 09:31:24;;;;;;;35.70;23.40;;;;;;;7.23;82.31;100384.09;5028717;28;20906;-79
2021/11/13 09:33:49;;;;;;;34.83;22.85;;;;;;;7.32;82.21;100387.31;5015565;28;20395;-79
2021/11/13 09:36:15;;;;;;;30.57;20.97;;;;;;;7.36;81.64;100391.22;5031213;28;20390;-79
2021/11/13 09:38:43;;;;;;;29.43;19.37;;;;;;;7.42;81.18;100384.91;5021179;28;20579;-78
2021/11/13 09:41:09;;;;;;;28.27;19.97;;;;;;;7.50;81.45;100386.47;5028929;28;20425;-79
2021/11/13 09:43:37;;;;;;;30.35;20.58;;;;;;;7.53;81.64;100389.56;5031228;28;20418;-79
2021/11/13 09:46:07;;;;;;;30.02;19.75;;;;;;;7.41;81.64;100380.56;5029602;28;20394;-78
2021/11/13 09:48:36;;;;;;;29.23;21.10;;;;;;;7.32;81.58;100374.66;5030736;28;20410;-79
2021/11/13 09:51:02;;;;;;;27.10;19.08;;;;;;;7.28;82.24;100391.50;5029711;28;20419;-79
2021/11/13 09:53:28;;;;;;;25.17;20.13;;;;;;;7.32;82.59;100388.13;5030865;28;20406;-78
2021/11/13 09:55:55;;;;;;;26.23;19.25;;;;;;;7.30;82.60;100395.63;5012311;28;20391;-79
2021/11/13 09:58:22;;;;;;;28.45;20.60;;;;;;;7.26;82.59;100391.75;5029601;28;20402;-79
2021/11/13 10:00:48;;;;;;;28.80;21.10;;;;;;;7.22;82.98;100390.53;5028443;28;20418;-78
2021/11/13 10:03:18;;;;;;;25.50;19.60;;;;;;;7.23;83.08;100394.06;5029821;28;20407;-80
2021/11/13 10:05:48;;;;;;;31.98;22.35;;;;;;;7.26;83.83;100382.81;5018976;28;20502;-81
2021/11/13 10:08:14;;;;;;;26.75;19.83;;;;;;;7.24;83.30;100391.13;5030245;28;20482;-80
2021/11/13 10:10:41;;;;;;;25.57;20.27;;;;;;;7.16;83.87;100382.53;5029883;28;20498;-80
2021/11/13 10:13:22;;;;;;;27.95;19.58;;;;;;;7.24;83.86;100384.94;5027448;28;20433;-81
2021/11/13 10:15:51;;;;;;;27.88;19.50;;;;;;;7.33;83.76;100378.19;5022662;28;20407;-81
2021/11/13 10:18:20;;;;;;;22.85;18.35;;;;;;;7.36;83.46;100380.44;5030916;28;20399;-81
2021/11/13 10:21:05;;;;;;;28.08;20.92;;;;;;;7.38;83.57;100378.31;5030653;28;20419;-81
2021/11/13 10:23:40;;;;;;;27.02;19.80;;;;;;;7.36;83.78;100369.66;5028913;28;20407;-81
2021/11/13 10:26:23;;;;;;;29.90;20.10;;;;;;;7.31;84.04;100372.19;5031171;28;20449;-81
2021/11/13 10:28:53;;;;;;;28.58;20.63;;;;;;;7.31;84.74;100356.00;5030188;28;20594;-81
2021/11/13 10:31:26;;;;;;;31.30;21.75;;;;;;;7.28;84.57;100356.47;5027444;28;20421;-80
2021/11/13 10:33:55;;;;;;;32.20;21.90;;;;;;;7.27;84.86;100362.91;5029514;28;20778;-80
2021/11/13 10:36:22;;;;;;;35.05;22.75;;;;;;;7.24;85.13;100360.69;5030139;28;20411;-79
2021/11/13 10:38:54;;;;;;;31.85;22.80;;;;;;;7.25;85.57;100351.53;5029561;28;20402;-81
2021/11/13 10:41:19;;;;;;;33.17;23.25;;;;;;;7.26;85.33;100343.22;5029580;28;20778;-80
2021/11/13 10:43:47;;;;;;;29.90;21.95;;;;;;;7.25;85.38;100344.25;5029106;28;20415;-79
2021/11/13 10:46:22;;;;;;;30.90;23.13;;;;;;;7.22;85.50;100339.31;5030622;28;20460;-80
2021/11/13 10:48:53;;;;;;;33.63;23.07;;;;;;;7.20;85.92;100337.91;5026489;28;20408;-81
2021/11/13 10:51:22;;;;;;;33.60;23.03;;;;;;;7.19;86.00;100334.38;5019814;28;20405;-79
2021/11/13 10:53:49;;;;;;;32.50;22.98;;;;;;;7.16;86.00;100334.84;5027950;28;20487;-81
2021/11/13 10:56:20;;;;;;;33.05;22.55;;;;;;;7.16;86.46;100325.94;5032836;28;20391;-85
2021/11/13 10:58:56;;;;;;;32.67;22.77;;;;;;;7.17;86.64;100323.03;5033781;28;20417;-81
2021/11/13 11:01:34;;;;;;;32.92;23.00;;;;;;;7.19;87.06;100325.47;5032411;28;20414;-81
2021/11/13 11:04:07;;;;;;;27.83;21.52;;;;;;;7.20;86.59;100313.66;5031953;28;20407;-82
2021/11/13 11:06:39;;;;;;;33.72;22.73;;;;;;;7.29;86.59;100313.13;5031819;28;20415;-81
2021/11/13 11:09:42;;;;;;;27.33;22.23;;;;;;;7.45;86.00;100313.53;5033749;28;20880;-81
2021/11/13 11:12:13;;;;;;;27.17;20.70;;;;;;;7.51;86.11;100302.66;5032922;28;20905;-81
2021/11/13 11:14:45;;;;;;;26.45;20.05;;;;;;;7.54;86.59;100299.50;5030132;28;20743;-81
2021/11/13 11:17:14;;;;;;;23.85;18.92;;;;;;;7.58;86.51;100302.56;5033764;28;20444;-83